createdAt,value
2024-01-12T00:04:53.895Z,44.37
2024-01-12T00:09:56.736Z,46.50
2024-01-12T00:15:00.941Z,44.03
2024-01-12T00:20:05.753Z,44.50
2024-01-12T00:25:09.609Z,43.57
2024-01-12T00:30:14.244Z,42.10
2024-01-12T00:35:17.111Z,41.00
2024-01-12T00:40:19.977Z,37.73
2024-01-12T00:45:24.178Z,38.20
2024-01-12T00:50:27.082Z,41.43
2024-01-12T00:55:29.940Z,42.37
2024-01-12T01:00:34.185Z,41.43
2024-01-12T01:05:37.095Z,43.77
2024-01-12T01:10:40.064Z,42.27
2024-01-12T01:15:44.494Z,40.93
2024-01-12T01:20:47.359Z,40.97
2024-01-12T01:25:50.407Z,40.10
2024-01-12T01:30:54.680Z,44.13
2024-01-12T01:35:57.632Z,42.40
2024-01-12T01:41:00.459Z,45.27
2024-01-12T01:46:05.218Z,47.93
2024-01-12T01:51:08.474Z,46.93
2024-01-12T01:56:13.674Z,45.83
2024-01-12T02:01:19.493Z,44.63
2024-01-12T02:06:22.438Z,41.57
2024-01-12T02:11:25.505Z,40.30
2024-01-12T02:16:29.686Z,38.57
2024-01-12T02:21:33.825Z,35.87
2024-01-12T02:26:36.868Z,38.10
2024-01-12T02:31:41.472Z,38.13
2024-01-12T02:36:45.708Z,36.33
2024-01-12T02:41:48.570Z,36.97
2024-01-12T02:46:51.494Z,37.33
2024-01-12T02:51:56.038Z,35.83
2024-01-12T02:56:59.105Z,29.77
2024-01-12T03:02:02.067Z,32.20
2024-01-12T03:07:06.275Z,29.47
2024-01-12T03:12:09.429Z,30.97
2024-01-12T03:17:12.614Z,27.83
2024-01-12T03:22:16.833Z,25.50
2024-01-12T03:27:19.773Z,27.13
2024-01-12T03:32:23.110Z,26.33
2024-01-12T03:37:27.645Z,25.20
2024-01-12T03:42:30.822Z,26.20
2024-01-12T03:47:33.785Z,26.67
2024-01-12T03:52:38.040Z,23.70
2024-01-12T03:57:40.831Z,24.97
2024-01-12T04:02:43.705Z,23.77
2024-01-12T04:07:47.898Z,25.83
2024-01-12T04:12:50.758Z,27.17
2024-01-12T04:17:53.748Z,27.07
2024-01-12T04:22:57.899Z,30.83
2024-01-12T04:28:00.737Z,28.17
2024-01-12T04:33:03.696Z,30.70
2024-01-12T04:38:10.550Z,31.87
2024-01-12T04:43:13.594Z,35.83
2024-01-12T04:48:18.051Z,32.90
2024-01-12T04:53:25.020Z,35.13
2024-01-12T04:58:29.273Z,33.77
2024-01-12T05:03:33.110Z,35.47
2024-01-12T05:08:38.535Z,31.77
2024-01-12T05:13:42.256Z,31.23
2024-01-12T05:18:46.341Z,32.47
2024-01-12T05:23:51.558Z,32.77
2024-01-12T05:28:55.343Z,35.53
2024-01-12T05:33:59.082Z,34.03
2024-01-12T05:39:05.354Z,39.00
2024-01-12T05:44:08.395Z,33.60
2024-01-12T05:49:12.343Z,36.77
2024-01-12T05:54:16.989Z,32.87
2024-01-12T05:59:19.855Z,32.27
2024-01-12T06:04:22.836Z,30.63
2024-01-12T06:09:27.045Z,32.00
2024-01-12T06:14:31.006Z,31.43
2024-01-12T06:19:34.036Z,31.43
2024-01-12T06:24:38.231Z,31.97
2024-01-12T06:29:41.174Z,30.60
2024-01-12T06:34:44.144Z,29.83
2024-01-12T06:39:49.155Z,31.37
2024-01-12T06:44:52.094Z,32.83
2024-01-12T06:49:55.588Z,29.70
2024-01-12T06:54:59.817Z,31.23
2024-01-12T07:00:02.837Z,31.70
2024-01-12T07:05:06.329Z,31.17
2024-01-12T07:10:12.317Z,33.33
2024-01-12T07:15:16.027Z,32.17
2024-01-12T07:20:19.873Z,30.23
2024-01-12T07:25:24.327Z,31.17
2024-01-12T07:30:27.473Z,30.60
2024-01-12T07:35:30.398Z,29.00
2024-01-12T07:40:36.026Z,29.10
2024-01-12T07:45:39.025Z,30.43
2024-01-12T07:50:42.222Z,32.47
2024-01-12T07:55:46.409Z,33.13
2024-01-12T08:00:49.981Z,30.73
2024-01-12T08:05:53.100Z,34.00
2024-01-12T08:10:58.288Z,32.17
2024-01-12T08:16:01.091Z,33.23
2024-01-12T08:21:03.966Z,60.67
2024-01-12T08:26:08.237Z,44.67
2024-01-12T08:31:11.203Z,32.17
2024-01-12T08:36:14.278Z,37.77
2024-01-12T08:41:18.780Z,33.80
2024-01-12T08:46:21.901Z,35.17
2024-01-12T08:51:25.228Z,36.03
2024-01-12T08:56:29.540Z,36.50
2024-01-12T09:01:32.405Z,38.30
2024-01-12T09:06:35.504Z,39.10
2024-01-12T09:11:39.960Z,40.10
2024-01-12T09:16:42.818Z,42.40
2024-01-12T09:21:45.706Z,39.03
2024-01-12T09:26:49.946Z,46.90
2024-01-12T09:31:52.797Z,45.70
2024-01-12T09:36:56.149Z,46.80
2024-01-12T09:42:03.540Z,42.43
2024-01-12T09:47:07.107Z,46.23
2024-01-12T09:52:10.037Z,47.80
2024-01-12T09:57:15.095Z,46.87
2024-01-12T10:02:19.498Z,48.17
2024-01-12T10:07:22.559Z,49.07
2024-01-12T10:12:26.749Z,51.00
2024-01-12T10:17:30.025Z,48.83
2024-01-12T10:22:33.385Z,49.27
2024-01-12T10:27:37.554Z,48.93
2024-01-12T10:32:41.238Z,49.03
2024-01-12T10:37:45.026Z,48.93
2024-01-12T10:42:51.033Z,51.10
2024-01-12T10:48:01.075Z,50.50
2024-01-12T10:53:12.063Z,49.40
2024-01-12T10:58:18.404Z,52.53
2024-01-12T11:03:23.488Z,50.67
2024-01-12T11:08:28.362Z,50.57
2024-01-12T11:13:33.234Z,53.17
2024-01-12T11:18:40.204Z,50.77
2024-01-12T11:23:44.675Z,52.53
2024-01-12T11:28:51.039Z,50.97
2024-01-12T11:39:03.388Z,57.83
2024-01-12T11:44:08.318Z,53.60
2024-01-12T11:49:13.716Z,55.37
2024-01-12T11:54:17.030Z,55.80
2024-01-12T11:59:21.614Z,56.50
2024-01-12T12:04:24.530Z,55.83
2024-01-12T12:09:27.869Z,57.97
2024-01-12T12:14:32.131Z,53.53
2024-01-12T12:19:35.380Z,58.33
2024-01-12T12:24:39.069Z,59.07
2024-01-12T12:29:43.592Z,59.10
2024-01-12T12:34:46.926Z,59.87
2024-01-12T12:39:49.926Z,61.53
2024-01-12T12:44:54.319Z,59.27
2024-01-12T12:49:57.336Z,55.97
2024-01-12T12:55:00.954Z,59.13
2024-01-12T13:00:06.911Z,56.33
2024-01-12T13:05:12.554Z,57.67
2024-01-12T13:10:15.603Z,62.20
2024-01-12T13:15:19.927Z,57.50
2024-01-12T13:20:23.680Z,58.93
2024-01-12T13:25:27.033Z,58.60
2024-01-12T13:30:31.287Z,61.63
2024-01-12T13:35:35.526Z,63.03
2024-01-12T13:40:40.565Z,56.17
2024-01-12T13:45:44.822Z,60.80
2024-01-12T13:50:47.812Z,57.20
2024-01-12T13:55:51.644Z,58.93
2024-01-12T14:00:56.021Z,63.73
2024-01-12T14:05:59.261Z,62.33
2024-01-12T14:11:02.508Z,65.10
2024-01-12T14:16:07.022Z,64.37
2024-01-12T14:21:10.329Z,61.93
2024-01-12T14:26:13.627Z,61.73
2024-01-12T14:31:18.015Z,60.40
2024-01-12T14:36:21.133Z,61.53
2024-01-12T14:41:24.070Z,61.77
2024-01-12T14:46:28.335Z,61.53
2024-01-12T14:51:32.077Z,64.07
2024-01-12T14:56:34.948Z,64.73
2024-01-12T15:01:39.136Z,64.80
2024-01-12T15:06:43.718Z,62.37
2024-01-12T15:11:47.891Z,62.77
2024-01-12T15:16:52.756Z,65.03
2024-01-12T15:21:56.106Z,60.97
2024-01-12T15:26:59.227Z,60.47
2024-01-12T15:32:03.459Z,63.23
2024-01-12T15:37:06.282Z,63.17
2024-01-12T15:42:09.182Z,62.13
2024-01-12T15:47:13.366Z,58.77
2024-01-12T15:52:16.189Z,59.00
2024-01-12T15:57:19.843Z,59.60
2024-01-12T16:02:24.067Z,59.60
2024-01-12T16:07:26.936Z,63.27
2024-01-12T16:12:29.911Z,61.13
2024-01-12T16:17:34.309Z,60.97
2024-01-12T16:22:37.193Z,61.47
2024-01-12T16:27:40.006Z,59.77
2024-01-12T16:32:47.376Z,63.90
2024-01-12T16:37:50.914Z,61.27
2024-01-12T16:42:53.718Z,60.13
2024-01-12T16:47:58.146Z,61.07
2024-01-12T16:53:01.293Z,62.83
2024-01-12T16:58:04.161Z,62.10
2024-01-12T17:03:08.739Z,62.83
2024-01-12T17:08:11.616Z,59.00
2024-01-12T17:13:14.479Z,62.73
2024-01-12T17:18:22.767Z,64.33
2024-01-12T17:23:32.244Z,65.53
2024-01-12T17:28:35.110Z,64.40
2024-01-12T17:33:39.633Z,64.40
2024-01-12T17:38:42.625Z,63.00
2024-01-12T17:43:45.524Z,62.53
2024-01-12T17:48:49.878Z,65.27
2024-01-12T17:53:54.336Z,61.37
2024-01-12T17:58:57.321Z,65.70
2024-01-12T18:04:01.583Z,65.70
2024-01-12T18:09:06.083Z,65.80
2024-01-12T18:14:09.589Z,61.70
2024-01-12T18:19:13.993Z,67.50
2024-01-12T18:24:16.927Z,64.57
2024-01-12T18:29:21.746Z,69.07
2024-01-12T18:34:27.243Z,65.43
2024-01-12T18:39:30.185Z,68.90
2024-01-12T18:44:33.128Z,67.60
2024-01-12T18:49:38.070Z,67.60
2024-01-12T18:54:42.232Z,69.43
2024-01-12T18:59:46.636Z,71.43
2024-01-12T19:04:50.953Z,65.50
2024-01-12T19:09:53.856Z,63.30
2024-01-12T19:14:57.049Z,63.63
2024-01-12T19:20:02.292Z,58.83
2024-01-12T19:25:05.833Z,58.37
2024-01-12T19:30:09.891Z,57.07
2024-01-12T19:35:14.479Z,57.23
2024-01-12T19:40:17.574Z,57.77
2024-01-12T19:45:20.654Z,57.93
2024-01-12T19:50:24.946Z,55.77
2024-01-12T19:55:27.841Z,57.40
2024-01-12T20:00:30.752Z,56.73
2024-01-12T20:05:34.996Z,62.90
2024-01-12T20:10:37.891Z,61.27
2024-01-12T20:15:40.744Z,59.27
2024-01-12T20:20:45.024Z,61.80
2024-01-12T20:25:47.958Z,60.67
2024-01-12T20:30:50.847Z,63.47
2024-01-12T20:35:55.125Z,61.33
2024-01-12T20:41:01.639Z,64.13
2024-01-12T20:46:04.899Z,63.73
2024-01-12T20:51:09.146Z,64.53
2024-01-12T20:56:12.179Z,71.70
2024-01-12T21:01:15.250Z,62.40
2024-01-12T21:06:19.774Z,66.53
2024-01-12T21:11:22.699Z,66.50
2024-01-12T21:16:25.589Z,69.23
2024-01-12T21:21:29.789Z,71.57
2024-01-12T21:26:32.814Z,70.10
2024-01-12T21:31:35.752Z,66.50
2024-01-12T21:36:40.068Z,65.40
2024-01-12T21:41:43.093Z,70.50
2024-01-12T21:46:46.011Z,65.80
2024-01-12T21:51:50.284Z,67.57
2024-01-12T21:56:53.180Z,68.40
2024-01-12T22:01:56.151Z,68.40
2024-01-12T22:07:01.529Z,66.90
2024-01-12T22:12:04.983Z,64.13
2024-01-12T22:17:07.889Z,66.33
2024-01-12T22:22:12.141Z,61.70
2024-01-12T22:27:15.145Z,62.40
2024-01-12T22:32:18.038Z,64.27
2024-01-12T22:37:22.417Z,66.70
2024-01-12T22:42:25.292Z,60.73
2024-01-12T22:47:28.457Z,67.90
2024-01-12T22:52:34.955Z,63.13
2024-01-12T22:57:37.834Z,60.97
2024-01-12T23:02:41.298Z,65.23
2024-01-12T23:07:46.740Z,62.13
2024-01-12T23:12:50.343Z,62.33
2024-01-12T23:17:53.353Z,64.47
2024-01-12T23:22:58.058Z,61.17
2024-01-12T23:28:00.926Z,62.47
2024-01-12T23:33:04.224Z,62.13
2024-01-12T23:38:09.528Z,64.53
2024-01-12T23:43:12.685Z,64.77
2024-01-12T23:48:26.997Z,62.97
2024-01-12T23:53:37.953Z,61.33
2024-01-12T23:58:41.025Z,62.23
